Awosting, New Jersey
Current Conditions -  °F | °C
As of 6:53 PM on Friday 31 Oct 2014 (Local Time) from KFWN Reporting Station
Overcast Overcast  
Wind Chill: 51°   Ceiling: 6000
Heat Index: 51°   Visibility: 10mi
Dew Point: 35°   Wind: 6mph
Humidity: 54%   Direction: 40°NE
Pressure: 29.92"   Gusts: NA
Location:  41.1652°N, 74.3769°W
Report Text: KFWN 312253Z AUTO 04005KT 10SM OVC060 11/02 A2992 RMK AO2 SLP133 T01060017
Loading
Personal Weather Stations






























Interactive Weather Map
Tropical Storm Tracking
New forecast layout! Learn more

10-Day Weather Forecast

Advertisements
Track Severe Weather on mobile